sensor_id;sensor_type;location;lat;lon;timestamp;P1;durP1;ratioP1;P2;durP2;ratioP2
75220;SDS011;63802;53.232;6.570;2024-02-16T00:01:01;8.95;;;3.00;;
75220;SDS011;63802;53.232;6.570;2024-02-16T00:03:28;8.38;;;3.20;;
75220;SDS011;63802;53.232;6.570;2024-02-16T00:05:54;6.72;;;2.92;;
75220;SDS011;63802;53.232;6.570;2024-02-16T00:08:19;6.55;;;3.28;;
75220;SDS011;63802;53.232;6.570;2024-02-16T00:10:46;7.28;;;2.88;;
75220;SDS011;63802;53.232;6.570;2024-02-16T00:13:12;6.43;;;2.78;;
75220;SDS011;63802;53.232;6.570;2024-02-16T00:15:38;7.55;;;3.28;;
75220;SDS011;63802;53.232;6.570;2024-02-16T00:18:05;8.98;;;3.13;;
75220;SDS011;63802;53.232;6.570;2024-02-16T00:20:32;5.22;;;3.20;;
75220;SDS011;63802;53.232;6.570;2024-02-16T00:23:00;7.20;;;2.93;;
75220;SDS011;63802;53.232;6.570;2024-02-16T00:25:26;5.88;;;2.92;;
75220;SDS011;63802;53.232;6.570;2024-02-16T00:27:52;8.23;;;3.15;;
75220;SDS011;63802;53.232;6.570;2024-02-16T00:30:18;10.02;;;3.05;;
75220;SDS011;63802;53.232;6.570;2024-02-16T00:32:44;6.45;;;3.10;;
75220;SDS011;63802;53.232;6.570;2024-02-16T00:35:14;5.35;;;3.00;;
75220;SDS011;63802;53.232;6.570;2024-02-16T00:37:56;6.25;;;2.90;;
75220;SDS011;63802;53.232;6.570;2024-02-16T00:40:22;11.07;;;3.38;;
75220;SDS011;63802;53.232;6.570;2024-02-16T00:42:48;9.57;;;2.78;;
75220;SDS011;63802;53.232;6.570;2024-02-16T00:45:16;11.55;;;3.65;;
75220;SDS011;63802;53.232;6.570;2024-02-16T00:47:42;6.43;;;2.92;;
75220;SDS011;63802;53.232;6.570;2024-02-16T00:50:07;7.50;;;3.25;;
75220;SDS011;63802;53.232;6.570;2024-02-16T00:52:34;7.97;;;3.05;;
75220;SDS011;63802;53.232;6.570;2024-02-16T00:55:03;5.78;;;2.95;;
75220;SDS011;63802;53.232;6.570;2024-02-16T00:57:29;9.93;;;3.28;;
75220;SDS011;63802;53.232;6.570;2024-02-16T00:59:55;6.30;;;2.90;;
75220;SDS011;63802;53.232;6.570;2024-02-16T01:02:20;9.00;;;3.53;;
75220;SDS011;63802;53.232;6.570;2024-02-16T01:04:47;6.22;;;2.88;;
75220;SDS011;63802;53.232;6.570;2024-02-16T01:07:15;6.25;;;2.90;;
75220;SDS011;63802;53.232;6.570;2024-02-16T01:09:41;5.15;;;3.00;;
75220;SDS011;63802;53.232;6.570;2024-02-16T01:12:06;7.10;;;2.92;;
75220;SDS011;63802;53.232;6.570;2024-02-16T01:14:33;5.40;;;2.85;;
75220;SDS011;63802;53.232;6.570;2024-02-16T01:16:59;7.00;;;3.30;;
75220;SDS011;63802;53.232;6.570;2024-02-16T01:19:24;7.47;;;3.13;;
75220;SDS011;63802;53.232;6.570;2024-02-16T01:21:53;6.55;;;3.10;;
75220;SDS011;63802;53.232;6.570;2024-02-16T01:24:22;8.38;;;3.00;;
75220;SDS011;63802;53.232;6.570;2024-02-16T01:26:49;8.32;;;3.22;;
75220;SDS011;63802;53.232;6.570;2024-02-16T01:29:14;5.32;;;2.75;;
75220;SDS011;63802;53.232;6.570;2024-02-16T01:31:43;8.68;;;3.00;;
75220;SDS011;63802;53.232;6.570;2024-02-16T01:34:13;10.25;;;3.05;;
75220;SDS011;63802;53.232;6.570;2024-02-16T01:36:42;7.38;;;3.03;;
75220;SDS011;63802;53.232;6.570;2024-02-16T01:39:08;6.10;;;3.17;;
75220;SDS011;63802;53.232;6.570;2024-02-16T01:41:33;7.22;;;3.05;;
75220;SDS011;63802;53.232;6.570;2024-02-16T01:46:29;5.20;;;3.05;;
75220;SDS011;63802;53.232;6.570;2024-02-16T01:48:55;10.38;;;3.05;;
75220;SDS011;63802;53.232;6.570;2024-02-16T01:51:22;9.65;;;2.90;;
75220;SDS011;63802;53.232;6.570;2024-02-16T01:56:17;7.22;;;2.80;;
75220;SDS011;63802;53.232;6.570;2024-02-16T01:58:45;11.75;;;3.75;;
75220;SDS011;63802;53.232;6.570;2024-02-16T02:01:11;9.50;;;3.13;;
75220;SDS011;63802;53.232;6.570;2024-02-16T02:03:37;7.60;;;2.80;;
75220;SDS011;63802;53.232;6.570;2024-02-16T02:06:02;9.38;;;3.20;;
75220;SDS011;63802;53.232;6.570;2024-02-16T02:08:28;6.25;;;3.28;;
75220;SDS011;63802;53.232;6.570;2024-02-16T02:10:53;6.50;;;2.80;;
75220;SDS011;63802;53.232;6.570;2024-02-16T02:13:19;6.07;;;2.70;;
75220;SDS011;63802;53.232;6.570;2024-02-16T02:15:47;4.68;;;2.50;;
75220;SDS011;63802;53.232;6.570;2024-02-16T02:18:12;7.25;;;2.67;;
75220;SDS011;63802;53.232;6.570;2024-02-16T02:20:39;6.95;;;2.58;;
75220;SDS011;63802;53.232;6.570;2024-02-16T02:23:04;7.53;;;3.20;;
75220;SDS011;63802;53.232;6.570;2024-02-16T02:25:30;6.75;;;2.83;;
75220;SDS011;63802;53.232;6.570;2024-02-16T02:27:55;5.53;;;2.78;;
75220;SDS011;63802;53.232;6.570;2024-02-16T02:30:21;6.53;;;2.63;;
75220;SDS011;63802;53.232;6.570;2024-02-16T02:32:47;5.93;;;2.90;;
75220;SDS011;63802;53.232;6.570;2024-02-16T02:35:14;4.80;;;3.13;;
75220;SDS011;63802;53.232;6.570;2024-02-16T02:37:41;8.68;;;3.13;;
75220;SDS011;63802;53.232;6.570;2024-02-16T02:40:07;5.45;;;2.67;;
75220;SDS011;63802;53.232;6.570;2024-02-16T02:42:33;7.75;;;2.72;;
75220;SDS011;63802;53.232;6.570;2024-02-16T02:44:59;6.45;;;3.03;;
75220;SDS011;63802;53.232;6.570;2024-02-16T02:47:25;8.00;;;3.28;;
75220;SDS011;63802;53.232;6.570;2024-02-16T02:49:50;6.60;;;2.90;;
75220;SDS011;63802;53.232;6.570;2024-02-16T02:52:16;6.72;;;3.00;;
75220;SDS011;63802;53.232;6.570;2024-02-16T02:54:42;5.65;;;2.88;;
75220;SDS011;63802;53.232;6.570;2024-02-16T02:57:08;5.90;;;3.00;;
75220;SDS011;63802;53.232;6.570;2024-02-16T02:59:33;8.55;;;3.03;;
75220;SDS011;63802;53.232;6.570;2024-02-16T03:01:59;9.35;;;3.10;;
75220;SDS011;63802;53.232;6.570;2024-02-16T03:04:25;7.38;;;3.30;;
75220;SDS011;63802;53.232;6.570;2024-02-16T03:06:54;5.60;;;2.70;;
75220;SDS011;63802;53.232;6.570;2024-02-16T03:09:19;8.73;;;2.80;;
75220;SDS011;63802;53.232;6.570;2024-02-16T03:11:44;6.55;;;2.85;;
75220;SDS011;63802;53.232;6.570;2024-02-16T03:14:10;5.53;;;2.92;;
75220;SDS011;63802;53.232;6.570;2024-02-16T03:16:36;8.18;;;2.83;;
75220;SDS011;63802;53.232;6.570;2024-02-16T03:19:08;9.80;;;3.28;;
75220;SDS011;63802;53.232;6.570;2024-02-16T03:21:36;4.93;;;2.88;;
75220;SDS011;63802;53.232;6.570;2024-02-16T03:24:02;10.88;;;4.10;;
75220;SDS011;63802;53.232;6.570;2024-02-16T03:26:27;6.55;;;3.25;;
75220;SDS011;63802;53.232;6.570;2024-02-16T03:28:53;7.40;;;3.17;;
75220;SDS011;63802;53.232;6.570;2024-02-16T03:33:45;8.48;;;3.13;;
75220;SDS011;63802;53.232;6.570;2024-02-16T03:36:10;7.18;;;3.20;;
75220;SDS011;63802;53.232;6.570;2024-02-16T03:38:40;5.18;;;2.63;;
75220;SDS011;63802;53.232;6.570;2024-02-16T03:41:12;7.03;;;3.03;;
75220;SDS011;63802;53.232;6.570;2024-02-16T03:43:39;6.10;;;3.25;;
75220;SDS011;63802;53.232;6.570;2024-02-16T03:46:05;7.18;;;3.65;;
75220;SDS011;63802;53.232;6.570;2024-02-16T03:48:31;7.78;;;3.05;;
75220;SDS011;63802;53.232;6.570;2024-02-16T03:50:56;6.53;;;2.83;;
75220;SDS011;63802;53.232;6.570;2024-02-16T03:53:22;10.02;;;2.95;;
75220;SDS011;63802;53.232;6.570;2024-02-16T03:55:48;7.18;;;2.92;;
75220;SDS011;63802;53.232;6.570;2024-02-16T03:58:15;7.72;;;3.28;;
75220;SDS011;63802;53.232;6.570;2024-02-16T04:00:41;7.95;;;3.10;;
75220;SDS011;63802;53.232;6.570;2024-02-16T04:03:07;9.15;;;3.20;;
75220;SDS011;63802;53.232;6.570;2024-02-16T04:05:34;9.63;;;3.10;;
75220;SDS011;63802;53.232;6.570;2024-02-16T04:08:00;6.55;;;3.17;;
75220;SDS011;63802;53.232;6.570;2024-02-16T04:10:27;7.25;;;3.10;;
75220;SDS011;63802;53.232;6.570;2024-02-16T04:12:59;6.97;;;3.17;;
75220;SDS011;63802;53.232;6.570;2024-02-16T04:15:25;7.50;;;3.00;;
75220;SDS011;63802;53.232;6.570;2024-02-16T04:17:51;8.35;;;2.90;;
75220;SDS011;63802;53.232;6.570;2024-02-16T04:20:17;10.80;;;3.75;;
75220;SDS011;63802;53.232;6.570;2024-02-16T04:22:42;10.43;;;3.38;;
75220;SDS011;63802;53.232;6.570;2024-02-16T04:25:11;7.50;;;3.30;;
75220;SDS011;63802;53.232;6.570;2024-02-16T04:27:36;5.93;;;2.90;;
75220;SDS011;63802;53.232;6.570;2024-02-16T04:30:03;7.88;;;3.30;;
75220;SDS011;63802;53.232;6.570;2024-02-16T04:32:30;6.28;;;3.15;;
75220;SDS011;63802;53.232;6.570;2024-02-16T04:34:56;5.47;;;2.85;;
75220;SDS011;63802;53.232;6.570;2024-02-16T04:37:22;10.68;;;3.30;;
75220;SDS011;63802;53.232;6.570;2024-02-16T04:39:48;6.53;;;2.75;;
75220;SDS011;63802;53.232;6.570;2024-02-16T04:42:14;8.55;;;2.90;;
75220;SDS011;63802;53.232;6.570;2024-02-16T04:44:39;8.70;;;3.13;;
75220;SDS011;63802;53.232;6.570;2024-02-16T04:47:05;7.18;;;3.15;;
75220;SDS011;63802;53.232;6.570;2024-02-16T04:49:31;7.15;;;2.97;;
75220;SDS011;63802;53.232;6.570;2024-02-16T04:51:57;10.43;;;3.58;;
75220;SDS011;63802;53.232;6.570;2024-02-16T04:54:22;5.28;;;2.60;;
75220;SDS011;63802;53.232;6.570;2024-02-16T04:56:51;6.55;;;3.20;;
75220;SDS011;63802;53.232;6.570;2024-02-16T04:59:16;7.47;;;2.97;;
75220;SDS011;63802;53.232;6.570;2024-02-16T05:01:44;7.72;;;3.05;;
75220;SDS011;63802;53.232;6.570;2024-02-16T05:04:10;8.68;;;2.97;;
75220;SDS011;63802;53.232;6.570;2024-02-16T05:06:41;6.15;;;3.22;;
75220;SDS011;63802;53.232;6.570;2024-02-16T05:09:06;9.35;;;3.08;;
75220;SDS011;63802;53.232;6.570;2024-02-16T05:11:32;5.13;;;2.63;;
75220;SDS011;63802;53.232;6.570;2024-02-16T05:13:57;7.43;;;3.22;;
75220;SDS011;63802;53.232;6.570;2024-02-16T05:16:23;5.25;;;2.90;;
75220;SDS011;63802;53.232;6.570;2024-02-16T05:18:49;7.43;;;2.83;;
75220;SDS011;63802;53.232;6.570;2024-02-16T05:21:14;7.07;;;3.17;;
75220;SDS011;63802;53.232;6.570;2024-02-16T05:23:39;4.85;;;2.58;;
75220;SDS011;63802;53.232;6.570;2024-02-16T05:26:05;5.95;;;2.83;;
75220;SDS011;63802;53.232;6.570;2024-02-16T05:28:30;4.88;;;2.53;;
75220;SDS011;63802;53.232;6.570;2024-02-16T05:30:58;8.40;;;3.03;;
75220;SDS011;63802;53.232;6.570;2024-02-16T05:33:37;5.82;;;2.70;;
75220;SDS011;63802;53.232;6.570;2024-02-16T05:36:03;7.18;;;2.63;;
75220;SDS011;63802;53.232;6.570;2024-02-16T05:38:28;4.55;;;3.20;;
75220;SDS011;63802;53.232;6.570;2024-02-16T05:41:06;9.60;;;2.58;;
75220;SDS011;63802;53.232;6.570;2024-02-16T05:43:33;6.68;;;2.70;;
75220;SDS011;63802;53.232;6.570;2024-02-16T05:45:58;7.13;;;3.88;;
75220;SDS011;63802;53.232;6.570;2024-02-16T05:48:25;4.97;;;2.85;;
75220;SDS011;63802;53.232;6.570;2024-02-16T05:50:52;5.65;;;2.80;;
75220;SDS011;63802;53.232;6.570;2024-02-16T05:53:21;6.68;;;2.92;;
75220;SDS011;63802;53.232;6.570;2024-02-16T05:55:46;5.97;;;3.13;;
75220;SDS011;63802;53.232;6.570;2024-02-16T05:58:12;6.40;;;2.72;;
75220;SDS011;63802;53.232;6.570;2024-02-16T06:00:38;7.28;;;3.08;;
75220;SDS011;63802;53.232;6.570;2024-02-16T06:03:03;10.13;;;3.78;;
75220;SDS011;63802;53.232;6.570;2024-02-16T06:05:28;6.85;;;3.05;;
75220;SDS011;63802;53.232;6.570;2024-02-16T06:07:55;4.75;;;2.60;;
75220;SDS011;63802;53.232;6.570;2024-02-16T06:10:22;6.78;;;3.55;;
75220;SDS011;63802;53.232;6.570;2024-02-16T06:12:47;5.28;;;2.88;;
75220;SDS011;63802;53.232;6.570;2024-02-16T06:15:13;6.28;;;2.72;;
75220;SDS011;63802;53.232;6.570;2024-02-16T06:17:39;4.65;;;2.60;;
75220;SDS011;63802;53.232;6.570;2024-02-16T06:20:05;6.05;;;2.80;;
75220;SDS011;63802;53.232;6.570;2024-02-16T06:22:34;4.47;;;2.60;;
75220;SDS011;63802;53.232;6.570;2024-02-16T06:25:00;9.80;;;2.80;;
75220;SDS011;63802;53.232;6.570;2024-02-16T06:27:26;7.18;;;3.38;;
75220;SDS011;63802;53.232;6.570;2024-02-16T06:29:51;5.80;;;2.65;;
75220;SDS011;63802;53.232;6.570;2024-02-16T06:32:17;7.25;;;2.70;;
75220;SDS011;63802;53.232;6.570;2024-02-16T06:34:42;6.07;;;3.05;;
75220;SDS011;63802;53.232;6.570;2024-02-16T06:37:08;10.57;;;2.97;;
75220;SDS011;63802;53.232;6.570;2024-02-16T06:39:33;5.63;;;2.92;;
75220;SDS011;63802;53.232;6.570;2024-02-16T06:41:59;7.30;;;3.10;;
75220;SDS011;63802;53.232;6.570;2024-02-16T06:44:25;5.35;;;3.00;;
75220;SDS011;63802;53.232;6.570;2024-02-16T06:46:51;5.10;;;2.33;;
75220;SDS011;63802;53.232;6.570;2024-02-16T06:49:16;6.30;;;2.80;;
75220;SDS011;63802;53.232;6.570;2024-02-16T06:51:42;7.72;;;2.83;;
75220;SDS011;63802;53.232;6.570;2024-02-16T06:54:09;6.13;;;2.90;;
75220;SDS011;63802;53.232;6.570;2024-02-16T06:56:35;5.85;;;2.95;;
75220;SDS011;63802;53.232;6.570;2024-02-16T06:59:01;8.45;;;2.95;;
75220;SDS011;63802;53.232;6.570;2024-02-16T07:01:26;8.52;;;2.70;;
75220;SDS011;63802;53.232;6.570;2024-02-16T07:03:52;6.20;;;3.15;;
75220;SDS011;63802;53.232;6.570;2024-02-16T07:06:18;7.90;;;3.00;;
75220;SDS011;63802;53.232;6.570;2024-02-16T07:08:43;6.72;;;2.92;;
75220;SDS011;63802;53.232;6.570;2024-02-16T07:11:09;5.03;;;3.20;;
75220;SDS011;63802;53.232;6.570;2024-02-16T07:13:38;7.65;;;3.10;;
75220;SDS011;63802;53.232;6.570;2024-02-16T07:16:05;5.78;;;3.20;;
75220;SDS011;63802;53.232;6.570;2024-02-16T07:18:32;6.13;;;2.90;;
75220;SDS011;63802;53.232;6.570;2024-02-16T07:20:58;8.57;;;3.20;;
75220;SDS011;63802;53.232;6.570;2024-02-16T07:23:24;6.97;;;3.20;;
75220;SDS011;63802;53.232;6.570;2024-02-16T07:25:50;8.25;;;2.70;;
75220;SDS011;63802;53.232;6.570;2024-02-16T07:28:16;5.28;;;2.97;;
75220;SDS011;63802;53.232;6.570;2024-02-16T07:30:42;4.38;;;2.88;;
75220;SDS011;63802;53.232;6.570;2024-02-16T07:33:08;6.60;;;3.28;;
75220;SDS011;63802;53.232;6.570;2024-02-16T07:35:34;7.63;;;3.03;;
75220;SDS011;63802;53.232;6.570;2024-02-16T07:38:00;5.97;;;2.75;;
75220;SDS011;63802;53.232;6.570;2024-02-16T07:40:27;6.10;;;3.08;;
75220;SDS011;63802;53.232;6.570;2024-02-16T07:42:52;5.47;;;3.00;;
75220;SDS011;63802;53.232;6.570;2024-02-16T07:45:18;6.38;;;3.08;;
75220;SDS011;63802;53.232;6.570;2024-02-16T07:47:43;9.18;;;3.13;;
75220;SDS011;63802;53.232;6.570;2024-02-16T07:50:09;6.68;;;2.95;;
75220;SDS011;63802;53.232;6.570;2024-02-16T07:52:35;4.38;;;2.72;;
75220;SDS011;63802;53.232;6.570;2024-02-16T07:55:03;5.82;;;2.83;;
75220;SDS011;63802;53.232;6.570;2024-02-16T07:57:29;7.10;;;2.83;;
75220;SDS011;63802;53.232;6.570;2024-02-16T07:59:55;7.97;;;3.13;;
75220;SDS011;63802;53.232;6.570;2024-02-16T08:02:21;6.32;;;2.67;;
75220;SDS011;63802;53.232;6.570;2024-02-16T08:04:47;7.18;;;3.47;;
75220;SDS011;63802;53.232;6.570;2024-02-16T08:07:13;5.82;;;3.35;;
75220;SDS011;63802;53.232;6.570;2024-02-16T08:09:38;8.65;;;3.33;;
75220;SDS011;63802;53.232;6.570;2024-02-16T08:12:04;8.43;;;2.92;;
75220;SDS011;63802;53.232;6.570;2024-02-16T08:14:32;7.90;;;3.13;;
75220;SDS011;63802;53.232;6.570;2024-02-16T08:16:58;7.60;;;3.40;;
75220;SDS011;63802;53.232;6.570;2024-02-16T08:19:25;6.15;;;3.40;;
75220;SDS011;63802;53.232;6.570;2024-02-16T08:21:58;8.00;;;3.17;;
75220;SDS011;63802;53.232;6.570;2024-02-16T08:24:24;5.53;;;2.50;;
75220;SDS011;63802;53.232;6.570;2024-02-16T08:26:50;10.77;;;3.13;;
75220;SDS011;63802;53.232;6.570;2024-02-16T08:29:16;5.72;;;3.08;;
75220;SDS011;63802;53.232;6.570;2024-02-16T08:31:41;9.75;;;3.03;;
75220;SDS011;63802;53.232;6.570;2024-02-16T08:34:08;8.68;;;3.67;;
75220;SDS011;63802;53.232;6.570;2024-02-16T08:36:35;8.77;;;3.65;;
75220;SDS011;63802;53.232;6.570;2024-02-16T08:39:01;13.13;;;3.00;;
75220;SDS011;63802;53.232;6.570;2024-02-16T08:41:26;10.88;;;3.17;;
75220;SDS011;63802;53.232;6.570;2024-02-16T08:43:52;8.45;;;3.45;;
75220;SDS011;63802;53.232;6.570;2024-02-16T08:46:17;7.75;;;3.40;;
75220;SDS011;63802;53.232;6.570;2024-02-16T08:48:47;7.72;;;3.05;;
75220;SDS011;63802;53.232;6.570;2024-02-16T08:51:13;8.32;;;3.50;;
75220;SDS011;63802;53.232;6.570;2024-02-16T08:53:41;6.78;;;3.10;;
75220;SDS011;63802;53.232;6.570;2024-02-16T08:56:10;6.32;;;3.38;;
75220;SDS011;63802;53.232;6.570;2024-02-16T09:01:01;5.22;;;3.20;;
75220;SDS011;63802;53.232;6.570;2024-02-16T09:03:27;9.40;;;3.53;;
75220;SDS011;63802;53.232;6.570;2024-02-16T09:05:52;7.03;;;3.22;;
75220;SDS011;63802;53.232;6.570;2024-02-16T09:08:18;9.07;;;3.78;;
75220;SDS011;63802;53.232;6.570;2024-02-16T09:10:43;10.48;;;3.60;;
75220;SDS011;63802;53.232;6.570;2024-02-16T09:13:09;7.03;;;3.40;;
75220;SDS011;63802;53.232;6.570;2024-02-16T09:15:34;7.85;;;3.17;;
75220;SDS011;63802;53.232;6.570;2024-02-16T09:18:02;8.95;;;4.13;;
75220;SDS011;63802;53.232;6.570;2024-02-16T09:20:28;8.48;;;3.90;;
75220;SDS011;63802;53.232;6.570;2024-02-16T09:22:53;9.10;;;3.47;;
75220;SDS011;63802;53.232;6.570;2024-02-16T09:25:19;9.68;;;3.75;;
75220;SDS011;63802;53.232;6.570;2024-02-16T09:27:44;10.00;;;3.85;;
75220;SDS011;63802;53.232;6.570;2024-02-16T09:30:10;7.68;;;3.55;;
75220;SDS011;63802;53.232;6.570;2024-02-16T09:32:40;7.07;;;3.45;;
75220;SDS011;63802;53.232;6.570;2024-02-16T09:35:07;8.98;;;3.78;;
75220;SDS011;63802;53.232;6.570;2024-02-16T09:37:33;7.45;;;3.50;;
75220;SDS011;63802;53.232;6.570;2024-02-16T09:40:02;8.88;;;4.32;;
75220;SDS011;63802;53.232;6.570;2024-02-16T09:42:29;6.65;;;3.83;;
75220;SDS011;63802;53.232;6.570;2024-02-16T09:44:54;8.15;;;3.92;;
75220;SDS011;63802;53.232;6.570;2024-02-16T09:47:20;7.13;;;3.97;;
75220;SDS011;63802;53.232;6.570;2024-02-16T09:49:47;6.40;;;3.70;;
75220;SDS011;63802;53.232;6.570;2024-02-16T09:52:13;10.70;;;3.88;;
75220;SDS011;63802;53.232;6.570;2024-02-16T09:54:39;8.95;;;4.28;;
75220;SDS011;63802;53.232;6.570;2024-02-16T09:57:05;8.32;;;3.80;;
75220;SDS011;63802;53.232;6.570;2024-02-16T09:59:31;9.68;;;4.18;;
75220;SDS011;63802;53.232;6.570;2024-02-16T10:02:03;10.57;;;4.93;;
75220;SDS011;63802;53.232;6.570;2024-02-16T10:04:34;9.40;;;3.50;;
75220;SDS011;63802;53.232;6.570;2024-02-16T10:07:03;10.95;;;4.10;;
75220;SDS011;63802;53.232;6.570;2024-02-16T10:09:31;11.77;;;4.40;;
75220;SDS011;63802;53.232;6.570;2024-02-16T10:12:00;8.82;;;4.03;;
75220;SDS011;63802;53.232;6.570;2024-02-16T10:14:33;9.50;;;3.85;;
75220;SDS011;63802;53.232;6.570;2024-02-16T10:17:01;10.10;;;4.70;;
75220;SDS011;63802;53.232;6.570;2024-02-16T10:19:29;10.63;;;3.95;;
75220;SDS011;63802;53.232;6.570;2024-02-16T10:22:10;13.55;;;4.93;;
75220;SDS011;63802;53.232;6.570;2024-02-16T10:24:37;12.75;;;4.75;;
75220;SDS011;63802;53.232;6.570;2024-02-16T10:27:13;9.63;;;4.38;;
75220;SDS011;63802;53.232;6.570;2024-02-16T10:29:46;9.00;;;4.32;;
75220;SDS011;63802;53.232;6.570;2024-02-16T10:32:16;10.07;;;4.70;;
75220;SDS011;63802;53.232;6.570;2024-02-16T10:34:42;10.18;;;4.55;;
75220;SDS011;63802;53.232;6.570;2024-02-16T10:37:11;12.38;;;4.82;;
75220;SDS011;63802;53.232;6.570;2024-02-16T10:39:37;14.10;;;4.78;;
75220;SDS011;63802;53.232;6.570;2024-02-16T10:42:05;10.82;;;5.70;;
75220;SDS011;63802;53.232;6.570;2024-02-16T10:44:33;10.70;;;4.95;;
75220;SDS011;63802;53.232;6.570;2024-02-16T10:47:00;8.48;;;4.78;;
75220;SDS011;63802;53.232;6.570;2024-02-16T10:49:26;11.27;;;5.80;;
75220;SDS011;63802;53.232;6.570;2024-02-16T10:51:52;11.90;;;5.78;;
75220;SDS011;63802;53.232;6.570;2024-02-16T10:54:25;16.13;;;5.93;;
75220;SDS011;63802;53.232;6.570;2024-02-16T10:56:54;14.65;;;6.05;;
75220;SDS011;63802;53.232;6.570;2024-02-16T10:59:20;14.32;;;6.38;;
75220;SDS011;63802;53.232;6.570;2024-02-16T11:01:58;15.02;;;6.22;;
75220;SDS011;63802;53.232;6.570;2024-02-16T11:04:25;12.55;;;6.00;;
75220;SDS011;63802;53.232;6.570;2024-02-16T11:07:10;15.57;;;6.15;;
75220;SDS011;63802;53.232;6.570;2024-02-16T11:09:43;11.98;;;6.30;;
75220;SDS011;63802;53.232;6.570;2024-02-16T11:12:13;13.05;;;6.53;;
75220;SDS011;63802;53.232;6.570;2024-02-16T11:14:46;14.02;;;6.80;;
75220;SDS011;63802;53.232;6.570;2024-02-16T11:17:14;14.02;;;7.10;;
75220;SDS011;63802;53.232;6.570;2024-02-16T11:19:44;16.65;;;7.10;;
75220;SDS011;63802;53.232;6.570;2024-02-16T11:22:11;17.30;;;7.63;;
75220;SDS011;63802;53.232;6.570;2024-02-16T11:24:50;20.73;;;7.90;;
75220;SDS011;63802;53.232;6.570;2024-02-16T11:27:19;19.70;;;9.25;;
75220;SDS011;63802;53.232;6.570;2024-02-16T11:29:45;18.25;;;8.65;;
75220;SDS011;63802;53.232;6.570;2024-02-16T11:32:11;19.85;;;8.98;;
75220;SDS011;63802;53.232;6.570;2024-02-16T11:34:37;25.70;;;9.02;;
75220;SDS011;63802;53.232;6.570;2024-02-16T11:37:03;18.42;;;9.15;;
75220;SDS011;63802;53.232;6.570;2024-02-16T11:39:30;18.45;;;8.82;;
75220;SDS011;63802;53.232;6.570;2024-02-16T11:42:11;18.40;;;8.90;;
75220;SDS011;63802;53.232;6.570;2024-02-16T11:44:38;17.10;;;8.57;;
75220;SDS011;63802;53.232;6.570;2024-02-16T11:47:05;19.90;;;8.38;;
75220;SDS011;63802;53.232;6.570;2024-02-16T11:49:37;17.40;;;8.30;;
75220;SDS011;63802;53.232;6.570;2024-02-16T11:52:05;15.02;;;8.05;;
75220;SDS011;63802;53.232;6.570;2024-02-16T11:56:57;16.25;;;7.75;;
75220;SDS011;63802;53.232;6.570;2024-02-16T11:59:35;17.65;;;7.03;;
75220;SDS011;63802;53.232;6.570;2024-02-16T12:04:40;16.27;;;7.32;;
75220;SDS011;63802;53.232;6.570;2024-02-16T12:07:05;16.52;;;7.63;;
75220;SDS011;63802;53.232;6.570;2024-02-16T12:09:30;17.27;;;7.75;;
75220;SDS011;63802;53.232;6.570;2024-02-16T12:11:59;14.80;;;7.37;;
75220;SDS011;63802;53.232;6.570;2024-02-16T12:14:28;13.88;;;7.22;;
75220;SDS011;63802;53.232;6.570;2024-02-16T12:17:10;16.42;;;7.43;;
75220;SDS011;63802;53.232;6.570;2024-02-16T12:19:36;14.98;;;7.30;;
75220;SDS011;63802;53.232;6.570;2024-02-16T12:22:08;17.10;;;6.68;;
75220;SDS011;63802;53.232;6.570;2024-02-16T12:24:34;15.82;;;6.60;;
75220;SDS011;63802;53.232;6.570;2024-02-16T12:26:59;14.73;;;6.03;;
75220;SDS011;63802;53.232;6.570;2024-02-16T12:29:24;13.60;;;5.95;;
75220;SDS011;63802;53.232;6.570;2024-02-16T12:31:50;13.20;;;5.93;;
75220;SDS011;63802;53.232;6.570;2024-02-16T12:34:22;14.07;;;6.00;;
75220;SDS011;63802;53.232;6.570;2024-02-16T12:36:48;12.30;;;5.72;;
75220;SDS011;63802;53.232;6.570;2024-02-16T12:39:13;15.63;;;6.10;;
75220;SDS011;63802;53.232;6.570;2024-02-16T12:41:40;13.35;;;5.60;;
75220;SDS011;63802;53.232;6.570;2024-02-16T12:44:08;13.68;;;5.40;;
75220;SDS011;63802;53.232;6.570;2024-02-16T12:46:33;13.68;;;5.50;;
75220;SDS011;63802;53.232;6.570;2024-02-16T12:49:02;10.88;;;5.47;;
75220;SDS011;63802;53.232;6.570;2024-02-16T12:51:28;14.37;;;5.87;;
75220;SDS011;63802;53.232;6.570;2024-02-16T12:53:53;9.57;;;5.07;;
75220;SDS011;63802;53.232;6.570;2024-02-16T12:56:19;13.48;;;5.47;;
75220;SDS011;63802;53.232;6.570;2024-02-16T12:58:47;10.93;;;4.55;;
75220;SDS011;63802;53.232;6.570;2024-02-16T13:01:13;12.93;;;5.20;;
75220;SDS011;63802;53.232;6.570;2024-02-16T13:03:38;10.43;;;4.97;;
75220;SDS011;63802;53.232;6.570;2024-02-16T13:06:04;8.73;;;4.40;;
75220;SDS011;63802;53.232;6.570;2024-02-16T13:08:30;15.23;;;5.90;;
75220;SDS011;63802;53.232;6.570;2024-02-16T13:10:56;9.00;;;5.05;;
75220;SDS011;63802;53.232;6.570;2024-02-16T13:13:23;9.05;;;4.32;;
75220;SDS011;63802;53.232;6.570;2024-02-16T13:15:48;10.65;;;4.80;;
75220;SDS011;63802;53.232;6.570;2024-02-16T13:18:14;9.93;;;4.22;;
75220;SDS011;63802;53.232;6.570;2024-02-16T13:20:40;9.38;;;4.07;;
75220;SDS011;63802;53.232;6.570;2024-02-16T13:23:05;7.80;;;4.03;;
75220;SDS011;63802;53.232;6.570;2024-02-16T13:25:31;10.75;;;4.47;;
75220;SDS011;63802;53.232;6.570;2024-02-16T13:27:57;7.57;;;3.65;;
75220;SDS011;63802;53.232;6.570;2024-02-16T13:30:22;8.55;;;3.80;;
75220;SDS011;63802;53.232;6.570;2024-02-16T13:32:48;7.55;;;3.50;;
75220;SDS011;63802;53.232;6.570;2024-02-16T13:35:13;8.00;;;3.45;;
75220;SDS011;63802;53.232;6.570;2024-02-16T13:37:39;9.63;;;3.50;;
75220;SDS011;63802;53.232;6.570;2024-02-16T13:40:06;7.65;;;3.17;;
75220;SDS011;63802;53.232;6.570;2024-02-16T13:42:38;4.88;;;3.15;;
75220;SDS011;63802;53.232;6.570;2024-02-16T13:45:04;8.18;;;3.47;;
75220;SDS011;63802;53.232;6.570;2024-02-16T13:47:30;8.15;;;3.45;;
75220;SDS011;63802;53.232;6.570;2024-02-16T13:49:56;4.97;;;2.70;;
75220;SDS011;63802;53.232;6.570;2024-02-16T13:52:22;8.27;;;2.70;;
75220;SDS011;63802;53.232;6.570;2024-02-16T13:54:49;4.88;;;2.70;;
75220;SDS011;63802;53.232;6.570;2024-02-16T13:57:14;6.03;;;2.70;;
75220;SDS011;63802;53.232;6.570;2024-02-16T13:59:40;6.20;;;2.88;;
75220;SDS011;63802;53.232;6.570;2024-02-16T14:02:06;5.50;;;2.85;;
75220;SDS011;63802;53.232;6.570;2024-02-16T14:04:32;7.20;;;3.40;;
75220;SDS011;63802;53.232;6.570;2024-02-16T14:06:58;6.35;;;3.28;;
75220;SDS011;63802;53.232;6.570;2024-02-16T14:09:29;8.25;;;2.90;;
75220;SDS011;63802;53.232;6.570;2024-02-16T14:12:07;6.00;;;2.90;;
75220;SDS011;63802;53.232;6.570;2024-02-16T14:14:33;6.45;;;3.35;;
75220;SDS011;63802;53.232;6.570;2024-02-16T14:16:58;8.55;;;3.70;;
75220;SDS011;63802;53.232;6.570;2024-02-16T14:19:23;7.32;;;3.42;;
75220;SDS011;63802;53.232;6.570;2024-02-16T14:21:49;10.07;;;4.00;;
75220;SDS011;63802;53.232;6.570;2024-02-16T14:24:14;8.93;;;4.18;;
75220;SDS011;63802;53.232;6.570;2024-02-16T14:26:43;8.90;;;3.67;;
75220;SDS011;63802;53.232;6.570;2024-02-16T14:29:08;7.68;;;3.63;;
75220;SDS011;63802;53.232;6.570;2024-02-16T14:31:39;7.70;;;3.60;;
75220;SDS011;63802;53.232;6.570;2024-02-16T14:34:04;11.18;;;3.97;;
75220;SDS011;63802;53.232;6.570;2024-02-16T14:36:30;9.10;;;3.45;;
75220;SDS011;63802;53.232;6.570;2024-02-16T14:38:55;9.15;;;3.42;;
75220;SDS011;63802;53.232;6.570;2024-02-16T14:41:20;9.32;;;3.80;;
75220;SDS011;63802;53.232;6.570;2024-02-16T14:43:47;6.72;;;3.30;;
75220;SDS011;63802;53.232;6.570;2024-02-16T14:46:12;7.68;;;3.50;;
75220;SDS011;63802;53.232;6.570;2024-02-16T14:48:45;9.68;;;3.33;;
75220;SDS011;63802;53.232;6.570;2024-02-16T14:51:12;8.15;;;3.42;;
75220;SDS011;63802;53.232;6.570;2024-02-16T14:53:37;6.88;;;3.08;;
75220;SDS011;63802;53.232;6.570;2024-02-16T14:56:03;8.77;;;3.22;;
75220;SDS011;63802;53.232;6.570;2024-02-16T14:58:28;9.38;;;3.53;;